sensor_id;sensor_type;location;lat;lon;timestamp;P1;durP1;ratioP1;P2;durP2;ratioP2
52776;SDS011;38656;54.260;20.822;2023-08-06T00:00:07;5.35;;;4.90;;
52776;SDS011;38656;54.260;20.822;2023-08-06T00:02:33;7.90;;;4.97;;
52776;SDS011;38656;54.260;20.822;2023-08-06T00:04:59;6.38;;;4.80;;
52776;SDS011;38656;54.260;20.822;2023-08-06T00:07:25;5.68;;;4.93;;
52776;SDS011;38656;54.260;20.822;2023-08-06T00:09:51;5.85;;;4.70;;
52776;SDS011;38656;54.260;20.822;2023-08-06T00:12:17;8.95;;;5.43;;
52776;SDS011;38656;54.260;20.822;2023-08-06T00:14:43;8.27;;;5.20;;
52776;SDS011;38656;54.260;20.822;2023-08-06T00:17:10;10.90;;;5.47;;
52776;SDS011;38656;54.260;20.822;2023-08-06T00:19:36;9.50;;;5.57;;
52776;SDS011;38656;54.260;20.822;2023-08-06T00:22:02;9.60;;;6.00;;
52776;SDS011;38656;54.260;20.822;2023-08-06T00:24:28;7.93;;;5.55;;
52776;SDS011;38656;54.260;20.822;2023-08-06T00:26:54;7.60;;;5.50;;
52776;SDS011;38656;54.260;20.822;2023-08-06T00:29:20;8.90;;;5.38;;
52776;SDS011;38656;54.260;20.822;2023-08-06T00:31:46;6.40;;;5.80;;
52776;SDS011;38656;54.260;20.822;2023-08-06T00:36:44;6.78;;;6.05;;
52776;SDS011;38656;54.260;20.822;2023-08-06T00:39:10;8.95;;;6.30;;
52776;SDS011;38656;54.260;20.822;2023-08-06T00:41:36;13.80;;;6.88;;
52776;SDS011;38656;54.260;20.822;2023-08-06T00:44:02;9.25;;;6.10;;
52776;SDS011;38656;54.260;20.822;2023-08-06T00:46:28;9.90;;;6.75;;
52776;SDS011;38656;54.260;20.822;2023-08-06T00:48:54;9.38;;;6.63;;
52776;SDS011;38656;54.260;20.822;2023-08-06T00:51:21;8.13;;;6.82;;
52776;SDS011;38656;54.260;20.822;2023-08-06T00:53:48;10.05;;;6.88;;
52776;SDS011;38656;54.260;20.822;2023-08-06T00:56:15;10.35;;;7.60;;
52776;SDS011;38656;54.260;20.822;2023-08-06T00:58:41;13.73;;;10.90;;
52776;SDS011;38656;54.260;20.822;2023-08-06T01:01:07;16.65;;;11.85;;
52776;SDS011;38656;54.260;20.822;2023-08-06T01:03:33;17.30;;;11.43;;
52776;SDS011;38656;54.260;20.822;2023-08-06T01:06:00;17.63;;;10.10;;
52776;SDS011;38656;54.260;20.822;2023-08-06T01:16:51;11.13;;;8.15;;
52776;SDS011;38656;54.260;20.822;2023-08-06T01:19:17;9.45;;;8.45;;
52776;SDS011;38656;54.260;20.822;2023-08-06T01:21:43;7.75;;;6.85;;
52776;SDS011;38656;54.260;20.822;2023-08-06T01:24:09;11.23;;;5.10;;
52776;SDS011;38656;54.260;20.822;2023-08-06T01:26:37;10.77;;;5.65;;
52776;SDS011;38656;54.260;20.822;2023-08-06T01:31:37;7.15;;;5.45;;
52776;SDS011;38656;54.260;20.822;2023-08-06T01:34:05;7.97;;;5.30;;
52776;SDS011;38656;54.260;20.822;2023-08-06T01:36:31;8.35;;;5.22;;
52776;SDS011;38656;54.260;20.822;2023-08-06T01:38:58;6.30;;;5.53;;
52776;SDS011;38656;54.260;20.822;2023-08-06T01:41:24;6.80;;;5.60;;
52776;SDS011;38656;54.260;20.822;2023-08-06T01:43:50;7.68;;;6.00;;
52776;SDS011;38656;54.260;20.822;2023-08-06T01:46:16;8.52;;;7.72;;
52776;SDS011;38656;54.260;20.822;2023-08-06T01:48:42;8.85;;;7.18;;
52776;SDS011;38656;54.260;20.822;2023-08-06T01:51:08;9.23;;;7.07;;
52776;SDS011;38656;54.260;20.822;2023-08-06T01:53:35;8.10;;;6.68;;
52776;SDS011;38656;54.260;20.822;2023-08-06T01:56:01;7.53;;;6.82;;
52776;SDS011;38656;54.260;20.822;2023-08-06T01:58:27;8.73;;;6.72;;
52776;SDS011;38656;54.260;20.822;2023-08-06T02:00:53;9.02;;;6.95;;
52776;SDS011;38656;54.260;20.822;2023-08-06T02:03:19;5.82;;;5.18;;
52776;SDS011;38656;54.260;20.822;2023-08-06T02:05:45;9.57;;;6.15;;
52776;SDS011;38656;54.260;20.822;2023-08-06T02:08:11;8.18;;;5.68;;
52776;SDS011;38656;54.260;20.822;2023-08-06T02:10:37;6.22;;;4.88;;
52776;SDS011;38656;54.260;20.822;2023-08-06T02:13:03;6.20;;;5.60;;
52776;SDS011;38656;54.260;20.822;2023-08-06T02:15:29;7.60;;;5.05;;
52776;SDS011;38656;54.260;20.822;2023-08-06T02:17:55;7.65;;;5.47;;
52776;SDS011;38656;54.260;20.822;2023-08-06T02:20:21;5.55;;;4.40;;
52776;SDS011;38656;54.260;20.822;2023-08-06T02:22:47;5.35;;;4.82;;
52776;SDS011;38656;54.260;20.822;2023-08-06T02:25:13;6.13;;;5.15;;
52776;SDS011;38656;54.260;20.822;2023-08-06T02:27:39;12.77;;;5.43;;
52776;SDS011;38656;54.260;20.822;2023-08-06T02:30:05;5.80;;;5.18;;
52776;SDS011;38656;54.260;20.822;2023-08-06T02:32:31;4.95;;;4.55;;
52776;SDS011;38656;54.260;20.822;2023-08-06T02:35:00;6.55;;;5.13;;
52776;SDS011;38656;54.260;20.822;2023-08-06T02:37:27;8.27;;;5.15;;
52776;SDS011;38656;54.260;20.822;2023-08-06T02:39:53;6.43;;;5.85;;
52776;SDS011;38656;54.260;20.822;2023-08-06T02:42:19;5.88;;;5.38;;
52776;SDS011;38656;54.260;20.822;2023-08-06T02:44:45;6.75;;;5.70;;
52776;SDS011;38656;54.260;20.822;2023-08-06T02:47:11;8.27;;;5.05;;
52776;SDS011;38656;54.260;20.822;2023-08-06T02:49:37;10.50;;;6.18;;
52776;SDS011;38656;54.260;20.822;2023-08-06T02:52:03;6.13;;;5.63;;
52776;SDS011;38656;54.260;20.822;2023-08-06T02:54:29;7.03;;;5.45;;
52776;SDS011;38656;54.260;20.822;2023-08-06T02:56:56;7.70;;;6.72;;
52776;SDS011;38656;54.260;20.822;2023-08-06T02:59:22;9.93;;;7.68;;
52776;SDS011;38656;54.260;20.822;2023-08-06T03:01:48;10.50;;;7.45;;
52776;SDS011;38656;54.260;20.822;2023-08-06T03:04:14;8.18;;;7.32;;
52776;SDS011;38656;54.260;20.822;2023-08-06T03:06:40;5.05;;;4.05;;
52776;SDS011;38656;54.260;20.822;2023-08-06T03:09:06;4.80;;;4.15;;
52776;SDS011;38656;54.260;20.822;2023-08-06T03:11:32;3.97;;;3.55;;
52776;SDS011;38656;54.260;20.822;2023-08-06T03:13:58;3.25;;;2.50;;
52776;SDS011;38656;54.260;20.822;2023-08-06T03:16:24;3.13;;;2.05;;
52776;SDS011;38656;54.260;20.822;2023-08-06T03:18:50;1.92;;;1.83;;
52776;SDS011;38656;54.260;20.822;2023-08-06T03:21:16;2.20;;;2.08;;
52776;SDS011;38656;54.260;20.822;2023-08-06T03:23:42;3.92;;;2.10;;
52776;SDS011;38656;54.260;20.822;2023-08-06T03:26:08;2.92;;;2.00;;
52776;SDS011;38656;54.260;20.822;2023-08-06T03:28:34;4.30;;;2.03;;
52776;SDS011;38656;54.260;20.822;2023-08-06T03:31:00;3.35;;;1.58;;
52776;SDS011;38656;54.260;20.822;2023-08-06T03:33:26;3.75;;;1.65;;
52776;SDS011;38656;54.260;20.822;2023-08-06T03:35:52;3.28;;;1.88;;
52776;SDS011;38656;54.260;20.822;2023-08-06T03:38:18;2.15;;;1.95;;
52776;SDS011;38656;54.260;20.822;2023-08-06T03:40:45;3.08;;;2.33;;
52776;SDS011;38656;54.260;20.822;2023-08-06T03:43:12;2.90;;;2.50;;
52776;SDS011;38656;54.260;20.822;2023-08-06T03:45:38;2.38;;;2.13;;
52776;SDS011;38656;54.260;20.822;2023-08-06T03:48:04;3.75;;;2.60;;
52776;SDS011;38656;54.260;20.822;2023-08-06T03:50:30;2.08;;;1.98;;
52776;SDS011;38656;54.260;20.822;2023-08-06T03:52:56;3.55;;;2.13;;
52776;SDS011;38656;54.260;20.822;2023-08-06T03:55:22;3.17;;;2.90;;
52776;SDS011;38656;54.260;20.822;2023-08-06T03:57:48;3.17;;;2.50;;
52776;SDS011;38656;54.260;20.822;2023-08-06T04:00:14;2.85;;;2.65;;
52776;SDS011;38656;54.260;20.822;2023-08-06T04:02:40;2.95;;;2.35;;
52776;SDS011;38656;54.260;20.822;2023-08-06T04:05:06;4.07;;;2.67;;
52776;SDS011;38656;54.260;20.822;2023-08-06T04:07:32;3.90;;;2.67;;
52776;SDS011;38656;54.260;20.822;2023-08-06T04:09:59;3.65;;;3.00;;
52776;SDS011;38656;54.260;20.822;2023-08-06T04:12:25;3.25;;;2.72;;
52776;SDS011;38656;54.260;20.822;2023-08-06T04:14:51;3.33;;;3.00;;
52776;SDS011;38656;54.260;20.822;2023-08-06T04:17:18;3.35;;;3.05;;
52776;SDS011;38656;54.260;20.822;2023-08-06T04:19:48;3.15;;;2.88;;
52776;SDS011;38656;54.260;20.822;2023-08-06T04:22:14;5.30;;;2.80;;
52776;SDS011;38656;54.260;20.822;2023-08-06T04:24:41;4.38;;;3.15;;
52776;SDS011;38656;54.260;20.822;2023-08-06T04:27:08;4.55;;;3.20;;
52776;SDS011;38656;54.260;20.822;2023-08-06T04:29:34;3.67;;;3.38;;
52776;SDS011;38656;54.260;20.822;2023-08-06T04:32:00;5.15;;;3.88;;
52776;SDS011;38656;54.260;20.822;2023-08-06T04:34:26;3.47;;;3.20;;
52776;SDS011;38656;54.260;20.822;2023-08-06T04:36:52;4.55;;;4.00;;
52776;SDS011;38656;54.260;20.822;2023-08-06T04:39:18;4.13;;;3.70;;
52776;SDS011;38656;54.260;20.822;2023-08-06T04:41:44;5.05;;;3.03;;
52776;SDS011;38656;54.260;20.822;2023-08-06T04:44:10;4.22;;;3.10;;
52776;SDS011;38656;54.260;20.822;2023-08-06T04:46:36;3.60;;;3.20;;
52776;SDS011;38656;54.260;20.822;2023-08-06T04:49:02;3.40;;;3.20;;
52776;SDS011;38656;54.260;20.822;2023-08-06T04:51:28;3.30;;;3.08;;
52776;SDS011;38656;54.260;20.822;2023-08-06T04:53:54;3.78;;;3.47;;
52776;SDS011;38656;54.260;20.822;2023-08-06T04:56:20;3.50;;;3.20;;
52776;SDS011;38656;54.260;20.822;2023-08-06T04:58:46;5.22;;;4.15;;
52776;SDS011;38656;54.260;20.822;2023-08-06T05:01:12;4.43;;;3.58;;
52776;SDS011;38656;54.260;20.822;2023-08-06T05:03:38;3.67;;;3.38;;
52776;SDS011;38656;54.260;20.822;2023-08-06T05:06:04;3.35;;;3.03;;
52776;SDS011;38656;54.260;20.822;2023-08-06T05:08:30;4.38;;;3.97;;
52776;SDS011;38656;54.260;20.822;2023-08-06T05:10:56;5.78;;;4.00;;
52776;SDS011;38656;54.260;20.822;2023-08-06T05:13:22;6.97;;;4.18;;
52776;SDS011;38656;54.260;20.822;2023-08-06T05:15:48;6.40;;;4.32;;
52776;SDS011;38656;54.260;20.822;2023-08-06T05:18:15;4.53;;;4.07;;
52776;SDS011;38656;54.260;20.822;2023-08-06T05:20:41;6.07;;;4.30;;
52776;SDS011;38656;54.260;20.822;2023-08-06T05:23:07;5.00;;;3.85;;
52776;SDS011;38656;54.260;20.822;2023-08-06T05:25:37;5.05;;;4.63;;
52776;SDS011;38656;54.260;20.822;2023-08-06T05:28:03;7.43;;;3.85;;
52776;SDS011;38656;54.260;20.822;2023-08-06T05:30:29;4.53;;;4.20;;
52776;SDS011;38656;54.260;20.822;2023-08-06T05:32:56;4.15;;;3.85;;
52776;SDS011;38656;54.260;20.822;2023-08-06T05:35:22;3.67;;;3.42;;
52776;SDS011;38656;54.260;20.822;2023-08-06T05:37:49;4.15;;;3.75;;
52776;SDS011;38656;54.260;20.822;2023-08-06T05:40:15;5.07;;;4.57;;
52776;SDS011;38656;54.260;20.822;2023-08-06T05:42:41;5.65;;;5.18;;
52776;SDS011;38656;54.260;20.822;2023-08-06T05:45:07;4.75;;;4.32;;
52776;SDS011;38656;54.260;20.822;2023-08-06T05:47:34;5.07;;;4.57;;
52776;SDS011;38656;54.260;20.822;2023-08-06T05:50:00;5.40;;;4.90;;
52776;SDS011;38656;54.260;20.822;2023-08-06T05:52:26;8.73;;;5.53;;
52776;SDS011;38656;54.260;20.822;2023-08-06T05:54:52;7.65;;;4.80;;
52776;SDS011;38656;54.260;20.822;2023-08-06T05:57:20;5.32;;;4.78;;
52776;SDS011;38656;54.260;20.822;2023-08-06T05:59:46;4.70;;;4.25;;
52776;SDS011;38656;54.260;20.822;2023-08-06T06:02:12;8.63;;;5.97;;
52776;SDS011;38656;54.260;20.822;2023-08-06T06:04:38;6.18;;;5.57;;
52776;SDS011;38656;54.260;20.822;2023-08-06T06:07:04;5.43;;;4.93;;
52776;SDS011;38656;54.260;20.822;2023-08-06T06:09:30;8.25;;;5.40;;
52776;SDS011;38656;54.260;20.822;2023-08-06T06:11:56;6.18;;;5.68;;
52776;SDS011;38656;54.260;20.822;2023-08-06T06:14:22;8.85;;;5.82;;
52776;SDS011;38656;54.260;20.822;2023-08-06T06:16:48;6.68;;;5.93;;
52776;SDS011;38656;54.260;20.822;2023-08-06T06:19:14;7.85;;;6.53;;
52776;SDS011;38656;54.260;20.822;2023-08-06T06:21:40;6.88;;;6.05;;
52776;SDS011;38656;54.260;20.822;2023-08-06T06:24:06;8.15;;;7.35;;
52776;SDS011;38656;54.260;20.822;2023-08-06T06:26:33;7.63;;;6.75;;
52776;SDS011;38656;54.260;20.822;2023-08-06T06:28:59;8.13;;;6.65;;
52776;SDS011;38656;54.260;20.822;2023-08-06T06:31:25;9.88;;;8.15;;
52776;SDS011;38656;54.260;20.822;2023-08-06T06:33:51;9.88;;;8.88;;
52776;SDS011;38656;54.260;20.822;2023-08-06T06:36:19;9.20;;;8.27;;
52776;SDS011;38656;54.260;20.822;2023-08-06T06:38:45;9.77;;;8.73;;
52776;SDS011;38656;54.260;20.822;2023-08-06T06:41:11;9.07;;;8.30;;
52776;SDS011;38656;54.260;20.822;2023-08-06T06:43:37;10.45;;;8.18;;
52776;SDS011;38656;54.260;20.822;2023-08-06T06:46:04;9.52;;;8.52;;
52776;SDS011;38656;54.260;20.822;2023-08-06T06:48:31;11.35;;;9.35;;
52776;SDS011;38656;54.260;20.822;2023-08-06T06:50:57;10.77;;;9.68;;
52776;SDS011;38656;54.260;20.822;2023-08-06T06:53:24;10.13;;;9.23;;
52776;SDS011;38656;54.260;20.822;2023-08-06T06:55:53;10.88;;;9.77;;
52776;SDS011;38656;54.260;20.822;2023-08-06T06:58:19;10.43;;;9.52;;
52776;SDS011;38656;54.260;20.822;2023-08-06T07:00:46;11.20;;;9.63;;
52776;SDS011;38656;54.260;20.822;2023-08-06T07:03:13;10.20;;;9.25;;
52776;SDS011;38656;54.260;20.822;2023-08-06T07:05:39;11.13;;;9.40;;
52776;SDS011;38656;54.260;20.822;2023-08-06T07:08:05;10.80;;;9.68;;
52776;SDS011;38656;54.260;20.822;2023-08-06T07:10:31;11.00;;;9.90;;
52776;SDS011;38656;54.260;20.822;2023-08-06T07:12:57;10.85;;;9.95;;
52776;SDS011;38656;54.260;20.822;2023-08-06T07:15:23;13.98;;;10.85;;
52776;SDS011;38656;54.260;20.822;2023-08-06T07:17:49;12.02;;;10.98;;
52776;SDS011;38656;54.260;20.822;2023-08-06T07:20:15;12.38;;;11.30;;
52776;SDS011;38656;54.260;20.822;2023-08-06T07:22:41;13.18;;;12.05;;
52776;SDS011;38656;54.260;20.822;2023-08-06T07:25:07;12.73;;;11.48;;
52776;SDS011;38656;54.260;20.822;2023-08-06T07:27:33;14.30;;;12.35;;
52776;SDS011;38656;54.260;20.822;2023-08-06T07:29:59;13.32;;;12.18;;
52776;SDS011;38656;54.260;20.822;2023-08-06T07:32:25;14.43;;;13.23;;
52776;SDS011;38656;54.260;20.822;2023-08-06T07:34:53;14.07;;;12.25;;
52776;SDS011;38656;54.260;20.822;2023-08-06T07:37:24;14.98;;;13.70;;
52776;SDS011;38656;54.260;20.822;2023-08-06T07:39:50;13.95;;;12.75;;
52776;SDS011;38656;54.260;20.822;2023-08-06T07:42:16;15.00;;;13.40;;
52776;SDS011;38656;54.260;20.822;2023-08-06T07:44:45;15.98;;;14.40;;
52776;SDS011;38656;54.260;20.822;2023-08-06T07:47:15;15.63;;;13.88;;
52776;SDS011;38656;54.260;20.822;2023-08-06T07:49:41;14.15;;;12.80;;
52776;SDS011;38656;54.260;20.822;2023-08-06T07:52:07;15.05;;;13.52;;
52776;SDS011;38656;54.260;20.822;2023-08-06T07:54:33;15.27;;;13.68;;
52776;SDS011;38656;54.260;20.822;2023-08-06T07:56:59;15.50;;;14.20;;
52776;SDS011;38656;54.260;20.822;2023-08-06T07:59:25;15.25;;;13.95;;
52776;SDS011;38656;54.260;20.822;2023-08-06T08:01:51;15.70;;;14.35;;
52776;SDS011;38656;54.260;20.822;2023-08-06T08:04:17;16.55;;;15.10;;
52776;SDS011;38656;54.260;20.822;2023-08-06T08:06:44;15.52;;;14.15;;
52776;SDS011;38656;54.260;20.822;2023-08-06T08:09:10;16.10;;;14.57;;
52776;SDS011;38656;54.260;20.822;2023-08-06T08:11:36;15.18;;;13.70;;
52776;SDS011;38656;54.260;20.822;2023-08-06T08:14:02;16.60;;;15.18;;
52776;SDS011;38656;54.260;20.822;2023-08-06T08:16:28;14.43;;;13.32;;
52776;SDS011;38656;54.260;20.822;2023-08-06T08:18:54;14.50;;;13.07;;
52776;SDS011;38656;54.260;20.822;2023-08-06T08:21:20;14.68;;;13.30;;
52776;SDS011;38656;54.260;20.822;2023-08-06T08:23:46;15.18;;;13.82;;
52776;SDS011;38656;54.260;20.822;2023-08-06T08:26:12;16.73;;;13.63;;
52776;SDS011;38656;54.260;20.822;2023-08-06T08:28:38;14.25;;;12.85;;
52776;SDS011;38656;54.260;20.822;2023-08-06T08:31:07;13.65;;;12.30;;
52776;SDS011;38656;54.260;20.822;2023-08-06T08:33:36;15.82;;;12.85;;
52776;SDS011;38656;54.260;20.822;2023-08-06T08:38:28;14.38;;;12.63;;
52776;SDS011;38656;54.260;20.822;2023-08-06T08:40:54;12.80;;;11.77;;
52776;SDS011;38656;54.260;20.822;2023-08-06T08:43:23;12.48;;;11.35;;
52776;SDS011;38656;54.260;20.822;2023-08-06T08:45:50;15.80;;;11.73;;
52776;SDS011;38656;54.260;20.822;2023-08-06T08:48:17;12.07;;;11.18;;
52776;SDS011;38656;54.260;20.822;2023-08-06T08:50:45;14.93;;;10.45;;
52776;SDS011;38656;54.260;20.822;2023-08-06T08:53:16;11.07;;;10.05;;
52776;SDS011;38656;54.260;20.822;2023-08-06T08:55:46;19.02;;;10.70;;
52776;SDS011;38656;54.260;20.822;2023-08-06T08:58:13;12.25;;;10.90;;
52776;SDS011;38656;54.260;20.822;2023-08-06T09:00:40;11.18;;;10.25;;
52776;SDS011;38656;54.260;20.822;2023-08-06T09:03:07;9.85;;;8.82;;
52776;SDS011;38656;54.260;20.822;2023-08-06T09:05:33;11.30;;;10.20;;
52776;SDS011;38656;54.260;20.822;2023-08-06T09:08:03;11.10;;;9.30;;
52776;SDS011;38656;54.260;20.822;2023-08-06T09:10:30;10.05;;;9.10;;
52776;SDS011;38656;54.260;20.822;2023-08-06T09:12:57;9.55;;;8.40;;
52776;SDS011;38656;54.260;20.822;2023-08-06T09:15:26;16.27;;;9.25;;
52776;SDS011;38656;54.260;20.822;2023-08-06T09:17:53;9.73;;;8.68;;
52776;SDS011;38656;54.260;20.822;2023-08-06T09:20:19;9.60;;;8.32;;
52776;SDS011;38656;54.260;20.822;2023-08-06T09:22:46;10.30;;;9.02;;
52776;SDS011;38656;54.260;20.822;2023-08-06T09:25:24;10.15;;;9.25;;
52776;SDS011;38656;54.260;20.822;2023-08-06T09:27:51;11.45;;;7.72;;
52776;SDS011;38656;54.260;20.822;2023-08-06T09:30:31;8.73;;;7.72;;
52776;SDS011;38656;54.260;20.822;2023-08-06T09:32:57;8.75;;;7.85;;
52776;SDS011;38656;54.260;20.822;2023-08-06T09:35:24;9.35;;;7.60;;
52776;SDS011;38656;54.260;20.822;2023-08-06T09:37:50;7.47;;;6.78;;
52776;SDS011;38656;54.260;20.822;2023-08-06T09:40:26;8.00;;;7.30;;
52776;SDS011;38656;54.260;20.822;2023-08-06T09:42:53;12.75;;;7.20;;
52776;SDS011;38656;54.260;20.822;2023-08-06T09:45:19;12.40;;;7.45;;
52776;SDS011;38656;54.260;20.822;2023-08-06T09:47:47;9.65;;;6.20;;
52776;SDS011;38656;54.260;20.822;2023-08-06T09:50:16;9.57;;;7.25;;
52776;SDS011;38656;54.260;20.822;2023-08-06T09:52:43;7.82;;;6.03;;
52776;SDS011;38656;54.260;20.822;2023-08-06T09:55:13;7.45;;;5.80;;
52776;SDS011;38656;54.260;20.822;2023-08-06T09:57:42;8.25;;;6.00;;
52776;SDS011;38656;54.260;20.822;2023-08-06T10:00:09;13.50;;;5.25;;
52776;SDS011;38656;54.260;20.822;2023-08-06T10:02:39;6.88;;;5.40;;
52776;SDS011;38656;54.260;20.822;2023-08-06T10:05:08;11.48;;;5.07;;
52776;SDS011;38656;54.260;20.822;2023-08-06T10:07:35;16.30;;;4.93;;
52776;SDS011;38656;54.260;20.822;2023-08-06T10:10:04;5.65;;;4.97;;
52776;SDS011;38656;54.260;20.822;2023-08-06T10:12:31;11.32;;;5.07;;
52776;SDS011;38656;54.260;20.822;2023-08-06T10:14:59;5.15;;;4.72;;
52776;SDS011;38656;54.260;20.822;2023-08-06T10:17:27;11.07;;;4.82;;
52776;SDS011;38656;54.260;20.822;2023-08-06T10:19:54;6.32;;;4.57;;
52776;SDS011;38656;54.260;20.822;2023-08-06T10:22:23;8.45;;;5.20;;
52776;SDS011;38656;54.260;20.822;2023-08-06T10:28:06;13.55;;;5.05;;
52776;SDS011;38656;54.260;20.822;2023-08-06T10:32:51;12.40;;;5.63;;
52776;SDS011;38656;54.260;20.822;2023-08-06T10:40:31;12.70;;;5.72;;
52776;SDS011;38656;54.260;20.822;2023-08-06T10:43:01;7.25;;;4.85;;
52776;SDS011;38656;54.260;20.822;2023-08-06T10:45:27;9.70;;;5.72;;
52776;SDS011;38656;54.260;20.822;2023-08-06T10:47:55;12.07;;;5.22;;
52776;SDS011;38656;54.260;20.822;2023-08-06T10:50:22;10.85;;;5.10;;
52776;SDS011;38656;54.260;20.822;2023-08-06T10:52:49;6.75;;;4.53;;
52776;SDS011;38656;54.260;20.822;2023-08-06T10:55:22;12.70;;;5.18;;
52776;SDS011;38656;54.260;20.822;2023-08-06T10:57:49;10.98;;;4.78;;
52776;SDS011;38656;54.260;20.822;2023-08-06T11:00:15;8.48;;;4.55;;
52776;SDS011;38656;54.260;20.822;2023-08-06T11:02:41;6.68;;;4.75;;
52776;SDS011;38656;54.260;20.822;2023-08-06T11:05:09;6.95;;;4.47;;
52776;SDS011;38656;54.260;20.822;2023-08-06T11:07:35;9.20;;;4.85;;
52776;SDS011;38656;54.260;20.822;2023-08-06T11:10:02;13.32;;;4.88;;
52776;SDS011;38656;54.260;20.822;2023-08-06T11:12:29;5.65;;;4.80;;
52776;SDS011;38656;54.260;20.822;2023-08-06T11:14:55;7.93;;;4.90;;
52776;SDS011;38656;54.260;20.822;2023-08-06T11:17:21;10.18;;;5.25;;
52776;SDS011;38656;54.260;20.822;2023-08-06T11:19:48;5.97;;;4.88;;
52776;SDS011;38656;54.260;20.822;2023-08-06T11:22:14;11.88;;;5.10;;
52776;SDS011;38656;54.260;20.822;2023-08-06T11:24:40;14.52;;;5.32;;
52776;SDS011;38656;54.260;20.822;2023-08-06T11:27:13;13.57;;;5.28;;
52776;SDS011;38656;54.260;20.822;2023-08-06T11:29:39;6.47;;;5.13;;
52776;SDS011;38656;54.260;20.822;2023-08-06T11:32:06;6.20;;;4.57;;
52776;SDS011;38656;54.260;20.822;2023-08-06T11:34:32;8.15;;;4.88;;
52776;SDS011;38656;54.260;20.822;2023-08-06T11:36:58;6.95;;;5.15;;
52776;SDS011;38656;54.260;20.822;2023-08-06T11:39:24;9.80;;;4.75;;
52776;SDS011;38656;54.260;20.822;2023-08-06T11:41:50;7.97;;;4.50;;
52776;SDS011;38656;54.260;20.822;2023-08-06T11:44:18;13.63;;;4.82;;
52776;SDS011;38656;54.260;20.822;2023-08-06T11:46:53;7.20;;;5.05;;
52776;SDS011;38656;54.260;20.822;2023-08-06T11:49:36;8.40;;;4.68;;
52776;SDS011;38656;54.260;20.822;2023-08-06T11:52:38;8.10;;;5.15;;
52776;SDS011;38656;54.260;20.822;2023-08-06T11:57:31;8.40;;;4.60;;
52776;SDS011;38656;54.260;20.822;2023-08-06T12:00:07;6.75;;;5.07;;
52776;SDS011;38656;54.260;20.822;2023-08-06T12:02:33;8.27;;;4.97;;
52776;SDS011;38656;54.260;20.822;2023-08-06T12:05:22;12.20;;;5.35;;
52776;SDS011;38656;54.260;20.822;2023-08-06T12:07:49;9.05;;;4.90;;
52776;SDS011;38656;54.260;20.822;2023-08-06T12:10:15;9.68;;;4.35;;
52776;SDS011;38656;54.260;20.822;2023-08-06T12:12:42;10.63;;;4.60;;
52776;SDS011;38656;54.260;20.822;2023-08-06T12:15:08;7.38;;;4.80;;
52776;SDS011;38656;54.260;20.822;2023-08-06T12:17:35;7.32;;;4.18;;
52776;SDS011;38656;54.260;20.822;2023-08-06T12:20:02;6.13;;;4.72;;
52776;SDS011;38656;54.260;20.822;2023-08-06T12:22:29;8.40;;;4.22;;
52776;SDS011;38656;54.260;20.822;2023-08-06T12:24:59;5.05;;;4.20;;
52776;SDS011;38656;54.260;20.822;2023-08-06T12:27:26;8.07;;;4.30;;
52776;SDS011;38656;54.260;20.822;2023-08-06T12:29:52;8.35;;;4.22;;
52776;SDS011;38656;54.260;20.822;2023-08-06T12:32:18;5.18;;;4.28;;
52776;SDS011;38656;54.260;20.822;2023-08-06T12:34:44;8.90;;;3.97;;
52776;SDS011;38656;54.260;20.822;2023-08-06T12:37:10;9.50;;;5.43;;
52776;SDS011;38656;54.260;20.822;2023-08-06T12:39:36;6.28;;;4.20;;
52776;SDS011;38656;54.260;20.822;2023-08-06T12:42:04;12.88;;;4.68;;
52776;SDS011;38656;54.260;20.822;2023-08-06T12:44:30;11.52;;;4.93;;
52776;SDS011;38656;54.260;20.822;2023-08-06T12:46:56;10.60;;;4.53;;
52776;SDS011;38656;54.260;20.822;2023-08-06T12:49:23;7.20;;;4.00;;
52776;SDS011;38656;54.260;20.822;2023-08-06T12:51:49;9.93;;;4.35;;
52776;SDS011;38656;54.260;20.822;2023-08-06T12:54:19;13.93;;;4.22;;
52776;SDS011;38656;54.260;20.822;2023-08-06T12:56:45;9.20;;;4.63;;
52776;SDS011;38656;54.260;20.822;2023-08-06T12:59:13;6.00;;;4.45;;
52776;SDS011;38656;54.260;20.822;2023-08-06T13:01:39;7.40;;;4.80;;
52776;SDS011;38656;54.260;20.822;2023-08-06T13:04:05;5.18;;;4.53;;
52776;SDS011;38656;54.260;20.822;2023-08-06T13:06:31;9.38;;;4.50;;
52776;SDS011;38656;54.260;20.822;2023-08-06T13:09:08;9.60;;;4.72;;
52776;SDS011;38656;54.260;20.822;2023-08-06T13:11:34;8.88;;;4.95;;
52776;SDS011;38656;54.260;20.822;2023-08-06T13:14:10;7.60;;;4.50;;
52776;SDS011;38656;54.260;20.822;2023-08-06T13:16:37;7.47;;;5.18;;
52776;SDS011;38656;54.260;20.822;2023-08-06T13:19:04;11.80;;;5.78;;
52776;SDS011;38656;54.260;20.822;2023-08-06T13:24:00;9.38;;;5.20;;
52776;SDS011;38656;54.260;20.822;2023-08-06T13:26:27;18.70;;;5.13;;
52776;SDS011;38656;54.260;20.822;2023-08-06T13:28:53;6.00;;;5.40;;
52776;SDS011;38656;54.260;20.822;2023-08-06T13:31:19;10.52;;;6.15;;
52776;SDS011;38656;54.260;20.822;2023-08-06T13:33:45;6.88;;;5.50;;
52776;SDS011;38656;54.260;20.822;2023-08-06T13:36:13;9.13;;;5.30;;
52776;SDS011;38656;54.260;20.822;2023-08-06T13:38:39;10.05;;;5.47;;
52776;SDS011;38656;54.260;20.822;2023-08-06T13:41:05;10.50;;;6.30;;
52776;SDS011;38656;54.260;20.822;2023-08-06T13:43:31;9.02;;;5.75;;
52776;SDS011;38656;54.260;20.822;2023-08-06T13:45:57;12.98;;;6.18;;
52776;SDS011;38656;54.260;20.822;2023-08-06T13:48:23;6.93;;;5.32;;
52776;SDS011;38656;54.260;20.822;2023-08-06T13:50:49;6.47;;;5.13;;
52776;SDS011;38656;54.260;20.822;2023-08-06T13:53:15;10.13;;;6.10;;
52776;SDS011;38656;54.260;20.822;2023-08-06T13:55:41;9.18;;;4.78;;
52776;SDS011;38656;54.260;20.822;2023-08-06T13:58:07;16.88;;;5.90;;
52776;SDS011;38656;54.260;20.822;2023-08-06T14:00:35;17.77;;;4.90;;
52776;SDS011;38656;54.260;20.822;2023-08-06T14:03:01;11.73;;;5.53;;
52776;SDS011;38656;54.260;20.822;2023-08-06T14:05:27;8.48;;;5.03;;
52776;SDS011;38656;54.260;20.822;2023-08-06T14:07:53;9.93;;;5.10;;
52776;SDS011;38656;54.260;20.822;2023-08-06T14:10:19;8.75;;;5.30;;
52776;SDS011;38656;54.260;20.822;2023-08-06T14:12:45;8.07;;;5.00;;
52776;SDS011;38656;54.260;20.822;2023-08-06T14:15:11;5.85;;;4.55;;
52776;SDS011;38656;54.260;20.822;2023-08-06T14:17:37;7.53;;;5.07;;
52776;SDS011;38656;54.260;20.822;2023-08-06T14:20:03;7.47;;;4.50;;
52776;SDS011;38656;54.260;20.822;2023-08-06T14:22:32;6.55;;;4.38;;
52776;SDS011;38656;54.260;20.822;2023-08-06T14:24:58;13.23;;;4.90;;
52776;SDS011;38656;54.260;20.822;2023-08-06T14:27:24;7.40;;;4.82;;
52776;SDS011;38656;54.260;20.822;2023-08-06T14:29:51;11.38;;;4.80;;
52776;SDS011;38656;54.260;20.822;2023-08-06T14:32:17;5.45;;;4.80;;
52776;SDS011;38656;54.260;20.822;2023-08-06T14:34:43;5.32;;;4.72;;
52776;SDS011;38656;54.260;20.822;2023-08-06T14:37:10;9.77;;;4.20;;
52776;SDS011;38656;54.260;20.822;2023-08-06T14:39:42;9.55;;;4.97;;
52776;SDS011;38656;54.260;20.822;2023-08-06T14:42:08;14.82;;;4.75;;
52776;SDS011;38656;54.260;20.822;2023-08-06T14:44:34;7.15;;;4.75;;
52776;SDS011;38656;54.260;20.822;2023-08-06T14:47:00;12.45;;;4.50;;
52776;SDS011;38656;54.260;20.822;2023-08-06T14:49:26;8.73;;;4.60;;
52776;SDS011;38656;54.260;20.822;2023-08-06T14:51:52;9.30;;;5.00;;
52776;SDS011;38656;54.260;20.822;2023-08-06T14:54:18;11.52;;;4.88;;
52776;SDS011;38656;54.260;20.822;2023-08-06T14:56:44;9.77;;;5.05;;